createdAt,value
2023-02-07T00:01:14.821Z,10.15
2023-02-07T00:03:41.368Z,9.20
2023-02-07T00:06:10.429Z,8.35
2023-02-07T00:08:38.534Z,8.23
2023-02-07T00:11:09.019Z,8.77
2023-02-07T00:13:35.802Z,9.18
2023-02-07T00:16:04.343Z,8.60
2023-02-07T00:18:31.391Z,9.73
2023-02-07T00:21:03.424Z,7.82
2023-02-07T00:23:31.498Z,8.88
2023-02-07T00:25:58.558Z,7.72
2023-02-07T00:28:25.528Z,8.43
2023-02-07T00:31:01.833Z,8.15
2023-02-07T00:33:28.394Z,8.80
2023-02-07T00:36:03.282Z,10.55
2023-02-07T00:38:30.343Z,12.00
2023-02-07T00:40:56.960Z,14.05
2023-02-07T00:43:29.924Z,14.32
2023-02-07T00:46:01.405Z,14.48
2023-02-07T00:48:30.267Z,14.55
2023-02-07T00:50:57.368Z,14.88
2023-02-07T00:53:25.067Z,15.77
2023-02-07T00:55:51.673Z,16.73
2023-02-07T00:58:18.397Z,15.27
2023-02-07T01:00:45.083Z,16.67
2023-02-07T01:03:11.624Z,16.73
2023-02-07T01:05:38.553Z,17.40
2023-02-07T01:08:05.645Z,16.43
2023-02-07T01:10:32.851Z,16.37
2023-02-07T01:12:59.452Z,17.00
2023-02-07T01:15:26.893Z,16.53
2023-02-07T01:17:53.464Z,17.25
2023-02-07T01:20:20.059Z,15.87
2023-02-07T01:22:46.586Z,15.50
2023-02-07T01:25:13.106Z,17.20
2023-02-07T01:27:39.690Z,15.30
2023-02-07T01:30:06.492Z,15.97
2023-02-07T01:32:33.739Z,16.73
2023-02-07T01:35:00.646Z,16.70
2023-02-07T01:37:27.483Z,16.80
2023-02-07T01:39:55.408Z,15.23
2023-02-07T01:42:25.489Z,15.65
2023-02-07T01:44:51.963Z,16.73
2023-02-07T01:47:22.304Z,16.33
2023-02-07T01:49:52.376Z,15.93
2023-02-07T01:52:26.039Z,16.17
2023-02-07T01:54:58.093Z,16.55
2023-02-07T01:57:25.789Z,16.87
2023-02-07T01:59:55.289Z,16.07
2023-02-07T02:02:23.931Z,18.07
2023-02-07T02:04:53.892Z,16.23
2023-02-07T02:07:20.902Z,16.57
2023-02-07T02:09:47.467Z,17.20
2023-02-07T02:12:34.615Z,17.40
2023-02-07T02:15:43.049Z,17.20
2023-02-07T02:18:39.692Z,17.17
2023-02-07T02:21:32.917Z,17.00
2023-02-07T02:24:24.308Z,15.67
2023-02-07T02:27:21.274Z,13.83
2023-02-07T02:29:50.761Z,14.00
2023-02-07T02:32:50.781Z,13.17
2023-02-07T02:35:28.645Z,13.43
2023-02-07T02:38:21.784Z,12.93
2023-02-07T02:41:04.428Z,14.10
2023-02-07T02:43:36.828Z,13.17
2023-02-07T02:46:09.176Z,12.33
2023-02-07T02:48:36.347Z,13.20
2023-02-07T02:51:04.518Z,12.10
2023-02-07T02:53:31.220Z,12.63
2023-02-07T02:56:13.439Z,12.17
2023-02-07T02:59:00.539Z,12.73
2023-02-07T03:01:36.199Z,12.03
2023-02-07T03:04:08.768Z,11.73
2023-02-07T03:06:54.910Z,11.13
2023-02-07T03:09:39.425Z,11.50
2023-02-07T03:12:22.537Z,11.38
2023-02-07T03:14:54.856Z,12.00
2023-02-07T03:17:35.462Z,11.17
2023-02-07T03:20:17.280Z,11.47
2023-02-07T03:22:46.573Z,10.50
2023-02-07T03:25:15.411Z,10.83
2023-02-07T03:27:43.264Z,10.20
2023-02-07T03:30:16.407Z,11.17
2023-02-07T03:32:49.703Z,9.60
2023-02-07T03:35:24.768Z,9.90
2023-02-07T03:37:56.671Z,9.50
2023-02-07T03:40:27.096Z,9.30
2023-02-07T03:43:02.501Z,9.57
2023-02-07T03:45:29.400Z,9.57
2023-02-07T03:47:55.898Z,9.20
2023-02-07T03:50:22.643Z,10.03
2023-02-07T03:52:49.274Z,9.13
2023-02-07T03:55:15.938Z,9.97
2023-02-07T03:57:42.541Z,9.07
2023-02-07T04:00:10.384Z,9.47
2023-02-07T04:02:36.883Z,9.43
2023-02-07T04:05:03.444Z,8.33
2023-02-07T04:07:30.551Z,7.93
2023-02-07T04:09:57.128Z,8.33
2023-02-07T04:12:23.979Z,8.57
2023-02-07T04:14:50.432Z,10.13
2023-02-07T04:17:16.925Z,11.43
2023-02-07T04:19:43.413Z,11.50
2023-02-07T04:22:11.154Z,14.33
2023-02-07T04:24:37.680Z,16.60
2023-02-07T04:27:04.600Z,15.73
2023-02-07T04:29:31.065Z,16.87
2023-02-07T04:31:59.035Z,16.33
2023-02-07T04:34:25.901Z,16.43
2023-02-07T04:36:53.577Z,15.77
2023-02-07T04:39:20.542Z,15.23
2023-02-07T04:41:47.289Z,14.80
2023-02-07T04:44:13.766Z,10.50
2023-02-07T04:46:40.254Z,9.15
2023-02-07T04:49:07.172Z,10.93
2023-02-07T04:51:33.799Z,12.27
2023-02-07T04:54:00.352Z,13.47
2023-02-07T04:56:27.100Z,13.80
2023-02-07T04:58:53.819Z,13.77
2023-02-07T05:01:20.450Z,13.37
2023-02-07T05:03:47.006Z,14.73
2023-02-07T05:06:13.597Z,13.67
2023-02-07T05:08:40.349Z,14.57
2023-02-07T05:11:07.148Z,14.13
2023-02-07T05:13:33.734Z,13.70
2023-02-07T05:16:04.046Z,13.13
2023-02-07T05:18:30.977Z,11.70
2023-02-07T05:20:58.141Z,12.07
2023-02-07T05:23:25.219Z,12.37
2023-02-07T05:25:51.704Z,12.73
2023-02-07T05:28:18.229Z,12.17
2023-02-07T05:30:44.903Z,12.57
2023-02-07T05:33:11.857Z,11.10
2023-02-07T05:35:46.230Z,11.43
2023-02-07T05:38:16.009Z,11.48
2023-02-07T05:40:43.378Z,11.10
2023-02-07T05:43:11.471Z,11.23
2023-02-07T05:45:38.685Z,12.13
2023-02-07T05:48:06.373Z,12.27
2023-02-07T05:50:33.271Z,12.67
2023-02-07T05:53:00.037Z,11.10
2023-02-07T05:55:26.586Z,11.83
2023-02-07T05:57:53.036Z,12.50
2023-02-07T06:00:20.398Z,12.27
2023-02-07T06:02:46.916Z,11.90
2023-02-07T06:05:16.483Z,12.60
2023-02-07T06:07:46.575Z,10.40
2023-02-07T06:10:13.451Z,10.00
2023-02-07T06:12:40.220Z,10.05
2023-02-07T06:15:07.204Z,9.50
2023-02-07T06:17:33.688Z,10.25
2023-02-07T06:20:00.213Z,8.43
2023-02-07T06:22:26.837Z,8.85
2023-02-07T06:24:53.327Z,8.93
2023-02-07T06:27:19.923Z,8.52
2023-02-07T06:29:46.424Z,8.20
2023-02-07T06:32:12.921Z,8.00
2023-02-07T06:34:39.468Z,7.03
2023-02-07T06:37:06.140Z,6.43
2023-02-07T06:39:32.656Z,6.97
2023-02-07T06:41:59.197Z,6.23
2023-02-07T06:44:25.795Z,7.17
2023-02-07T06:46:52.288Z,6.83
2023-02-07T06:49:18.784Z,5.75
2023-02-07T06:51:45.271Z,6.30
2023-02-07T06:54:11.807Z,6.45
2023-02-07T06:56:38.852Z,6.63
2023-02-07T06:59:05.420Z,6.15
2023-02-07T07:01:32.272Z,6.25
2023-02-07T07:03:58.741Z,5.78
2023-02-07T07:06:25.432Z,5.75
2023-02-07T07:08:51.992Z,4.80
2023-02-07T07:11:19.152Z,4.78
2023-02-07T07:13:46.777Z,4.68
2023-02-07T07:16:14.122Z,4.15
2023-02-07T07:18:41.473Z,5.03
2023-02-07T07:21:08.443Z,4.68
2023-02-07T07:23:35.039Z,4.85
2023-02-07T07:26:01.587Z,5.00
2023-02-07T07:28:28.128Z,5.88
2023-02-07T07:30:54.650Z,5.57
2023-02-07T07:33:21.195Z,4.90
2023-02-07T07:35:47.753Z,4.80
2023-02-07T07:38:14.619Z,4.38
2023-02-07T07:40:41.468Z,4.95
2023-02-07T07:43:08.033Z,4.65
2023-02-07T07:45:34.660Z,4.70
2023-02-07T07:48:01.276Z,4.80
2023-02-07T07:50:27.824Z,5.05
2023-02-07T07:52:54.374Z,5.28
2023-02-07T07:55:20.843Z,5.00
2023-02-07T07:57:47.394Z,4.93
2023-02-07T08:00:14.657Z,4.80
2023-02-07T08:02:41.919Z,5.40
2023-02-07T08:05:10.809Z,4.60
2023-02-07T08:07:38.606Z,6.25
2023-02-07T08:10:05.723Z,5.97
2023-02-07T08:12:32.566Z,5.93
2023-02-07T08:14:59.084Z,5.70
2023-02-07T08:17:25.597Z,5.40
2023-02-07T08:19:52.116Z,5.97
2023-02-07T08:22:19.020Z,5.60
2023-02-07T08:24:45.545Z,6.25
2023-02-07T08:27:12.095Z,5.85
2023-02-07T08:29:38.656Z,5.50
2023-02-07T08:32:05.650Z,5.90
2023-02-07T08:34:37.377Z,6.38
2023-02-07T08:37:06.204Z,6.43
2023-02-07T08:39:33.788Z,5.25
2023-02-07T08:42:00.583Z,5.82
2023-02-07T08:44:27.793Z,5.32
2023-02-07T08:46:54.436Z,5.30
2023-02-07T08:49:21.232Z,5.28
2023-02-07T08:51:47.784Z,5.38
2023-02-07T08:54:14.482Z,5.18
2023-02-07T08:56:40.985Z,5.45
2023-02-07T08:59:07.612Z,5.68
2023-02-07T09:01:34.259Z,5.25
2023-02-07T09:04:00.818Z,5.65
2023-02-07T09:06:27.413Z,5.38
2023-02-07T09:08:54.417Z,5.57
2023-02-07T09:11:22.607Z,5.35
2023-02-07T09:13:49.612Z,6.00
2023-02-07T09:16:16.264Z,5.25
2023-02-07T09:18:42.949Z,4.75
2023-02-07T09:21:09.626Z,4.82
2023-02-07T09:23:36.698Z,5.78
2023-02-07T09:26:05.971Z,5.65
2023-02-07T09:28:33.084Z,5.60
2023-02-07T09:31:00.290Z,5.97
2023-02-07T09:33:27.051Z,5.45
2023-02-07T09:35:54.756Z,4.72
2023-02-07T09:38:23.662Z,4.53
2023-02-07T09:40:52.494Z,4.20
2023-02-07T09:43:39.384Z,4.57
2023-02-07T09:46:14.073Z,3.67
2023-02-07T09:48:50.939Z,4.30
2023-02-07T09:51:20.811Z,3.45
2023-02-07T09:54:00.865Z,4.10
2023-02-07T09:56:29.599Z,3.55
2023-02-07T09:59:10.800Z,3.67
2023-02-07T10:01:42.985Z,3.22
2023-02-07T10:04:19.116Z,3.60
2023-02-07T10:06:52.845Z,3.53
2023-02-07T10:09:24.136Z,3.87
2023-02-07T10:11:59.810Z,4.00
2023-02-07T10:14:32.110Z,3.97
2023-02-07T10:16:58.664Z,4.97
2023-02-07T10:19:40.996Z,4.82
2023-02-07T10:22:30.744Z,5.05
2023-02-07T10:25:35.571Z,5.10
2023-02-07T10:28:17.407Z,5.20
2023-02-07T10:30:50.615Z,4.88
2023-02-07T10:33:20.492Z,2.55
2023-02-07T10:35:48.489Z,1.33
2023-02-07T10:38:41.762Z,0.90
2023-02-07T10:41:13.799Z,0.95
2023-02-07T10:43:45.070Z,0.90
2023-02-07T10:46:18.043Z,0.50
2023-02-07T10:48:44.941Z,0.50
2023-02-07T10:51:30.079Z,0.55
2023-02-07T10:54:12.649Z,0.50
2023-02-07T10:56:51.502Z,0.60
2023-02-07T10:59:50.792Z,0.40
2023-02-07T11:02:31.634Z,0.60
2023-02-07T11:05:01.079Z,0.40
2023-02-07T11:07:36.773Z,0.50
2023-02-07T11:10:21.586Z,0.52
2023-02-07T11:12:56.612Z,0.90
2023-02-07T11:15:28.188Z,0.40
2023-02-07T11:17:56.961Z,0.68
2023-02-07T11:20:41.791Z,0.57
2023-02-07T11:23:15.078Z,0.50
2023-02-07T11:25:44.408Z,0.40
2023-02-07T11:28:21.304Z,0.80
2023-02-07T11:30:55.899Z,0.57
2023-02-07T11:33:28.511Z,0.30
2023-02-07T11:36:23.312Z,0.60
2023-02-07T11:38:54.876Z,0.50
2023-02-07T11:41:28.354Z,0.60
2023-02-07T11:44:04.288Z,0.60
2023-02-07T11:46:39.864Z,0.80
2023-02-07T11:49:24.247Z,0.57
2023-02-07T11:51:56.758Z,0.52
2023-02-07T11:54:23.807Z,1.60
2023-02-07T11:56:55.794Z,0.82
2023-02-07T11:59:26.854Z,1.17
2023-02-07T12:01:57.207Z,0.63
2023-02-07T12:04:33.588Z,0.60
2023-02-07T12:07:08.200Z,0.98
2023-02-07T12:09:45.774Z,0.50
2023-02-07T12:12:41.580Z,0.60
2023-02-07T12:15:25.612Z,0.77
2023-02-07T12:18:05.806Z,0.73
2023-02-07T12:20:39.102Z,0.68
2023-02-07T12:23:39.156Z,0.82
2023-02-07T12:26:06.928Z,0.60
2023-02-07T12:28:37.642Z,0.90
2023-02-07T12:31:18.376Z,0.60
2023-02-07T12:33:55.640Z,1.13
2023-02-07T12:36:46.563Z,1.42
2023-02-07T12:39:39.601Z,1.60
2023-02-07T12:42:12.064Z,1.20
2023-02-07T12:44:42.620Z,1.25
2023-02-07T12:47:38.678Z,1.20
2023-02-07T12:50:23.648Z,1.55
2023-02-07T12:52:50.128Z,1.58
2023-02-07T12:55:38.121Z,1.20
2023-02-07T12:58:42.039Z,1.23
2023-02-07T13:01:34.510Z,0.77
2023-02-07T13:04:36.540Z,0.90
2023-02-07T13:07:21.826Z,0.70
2023-02-07T13:10:06.828Z,1.52
2023-02-07T13:15:27.836Z,0.70
2023-02-07T13:18:22.651Z,0.75
2023-02-07T13:20:58.122Z,0.50
2023-02-07T13:23:28.339Z,0.50
2023-02-07T13:26:02.590Z,0.98
2023-02-07T13:28:44.425Z,0.60
2023-02-07T13:31:22.962Z,0.43
2023-02-07T13:33:50.725Z,0.32
2023-02-07T13:36:52.731Z,0.43
2023-02-07T13:39:39.062Z,0.52
2023-02-07T13:42:36.535Z,0.45
2023-02-07T13:45:30.718Z,0.50
2023-02-07T13:48:16.708Z,0.40
2023-02-07T13:50:43.215Z,0.40
2023-02-07T13:53:40.380Z,0.50
2023-02-07T13:56:32.528Z,0.68
2023-02-07T13:59:18.577Z,0.63
2023-02-07T14:01:57.823Z,0.80
2023-02-07T14:04:24.639Z,0.70
2023-02-07T14:06:54.018Z,1.30
2023-02-07T14:09:39.121Z,0.60
2023-02-07T14:14:38.405Z,0.50
2023-02-07T14:17:13.925Z,0.60
2023-02-07T14:19:40.477Z,0.60
2023-02-07T14:22:18.685Z,0.45
2023-02-07T14:25:18.512Z,0.50
2023-02-07T14:27:50.775Z,0.40
2023-02-07T14:30:31.054Z,0.90
2023-02-07T14:33:06.477Z,0.60
2023-02-07T14:35:36.377Z,0.40
2023-02-07T14:38:05.690Z,0.40
2023-02-07T14:40:44.496Z,0.60
2023-02-07T14:43:14.021Z,0.50
2023-02-07T14:46:03.300Z,0.50
2023-02-07T14:48:51.253Z,0.40
2023-02-07T14:51:22.407Z,0.45
2023-02-07T14:54:02.845Z,0.30
2023-02-07T14:56:48.183Z,1.00
2023-02-07T14:59:23.470Z,1.50
2023-02-07T15:01:49.982Z,0.93
2023-02-07T15:04:16.956Z,0.73
2023-02-07T15:06:46.159Z,0.40
2023-02-07T15:09:39.320Z,0.93
2023-02-07T15:12:22.369Z,0.60
2023-02-07T15:14:57.041Z,0.95
2023-02-07T15:17:30.982Z,0.90
2023-02-07T15:20:06.346Z,0.80
2023-02-07T15:22:32.878Z,0.80
2023-02-07T15:25:00.992Z,0.90
2023-02-07T15:27:29.520Z,0.80
2023-02-07T15:30:05.429Z,1.00
2023-02-07T15:32:41.972Z,0.50
2023-02-07T15:35:29.746Z,0.45
2023-02-07T15:38:13.757Z,0.82
2023-02-07T15:40:40.947Z,0.40
2023-02-07T15:43:35.107Z,0.75
2023-02-07T15:46:07.730Z,0.60
2023-02-07T15:48:47.248Z,0.60
2023-02-07T15:51:16.745Z,0.57
2023-02-07T15:53:43.523Z,0.77
2023-02-07T15:56:14.931Z,0.90
2023-02-07T15:58:41.801Z,1.00
2023-02-07T16:01:23.373Z,0.82
2023-02-07T16:03:51.889Z,1.40
2023-02-07T16:06:23.287Z,1.00
2023-02-07T16:08:54.581Z,2.50
2023-02-07T16:11:27.134Z,1.30
2023-02-07T16:13:59.595Z,1.33
2023-02-07T16:16:28.637Z,1.42
2023-02-07T16:19:15.081Z,1.80
2023-02-07T16:21:43.572Z,2.13
2023-02-07T16:24:17.128Z,2.40
2023-02-07T16:26:44.771Z,1.70
2023-02-07T16:29:18.432Z,2.85
2023-02-07T16:31:46.106Z,2.28
2023-02-07T16:34:18.339Z,2.80
2023-02-07T16:36:49.568Z,2.05
2023-02-07T16:39:16.095Z,2.92
2023-02-07T16:41:51.558Z,2.00
2023-02-07T16:44:24.285Z,3.22
2023-02-07T16:46:51.411Z,3.25
2023-02-07T16:49:22.736Z,2.88
2023-02-07T16:51:49.289Z,2.30
2023-02-07T16:54:16.579Z,4.78
2023-02-07T16:56:45.479Z,2.45
2023-02-07T16:59:18.427Z,5.95
2023-02-07T17:01:46.412Z,4.70
2023-02-07T17:04:13.693Z,4.05
2023-02-07T17:06:41.996Z,4.18
2023-02-07T17:09:17.580Z,5.30
2023-02-07T17:11:44.503Z,5.00
2023-02-07T17:14:11.333Z,3.08
2023-02-07T17:16:38.407Z,2.78
2023-02-07T17:19:31.225Z,3.47
2023-02-07T17:21:57.787Z,3.60
2023-02-07T17:24:24.460Z,4.00
2023-02-07T17:26:53.627Z,3.78
2023-02-07T17:29:21.097Z,3.70
2023-02-07T17:31:48.912Z,3.20
2023-02-07T17:34:15.593Z,6.07
2023-02-07T17:36:48.680Z,4.40
2023-02-07T17:39:17.823Z,3.50
2023-02-07T17:41:44.890Z,5.22
2023-02-07T17:44:11.411Z,3.70
2023-02-07T17:46:38.304Z,4.35
2023-02-07T17:49:06.376Z,3.65
2023-02-07T17:51:32.920Z,3.28
2023-02-07T17:53:59.489Z,3.47
2023-02-07T17:56:27.351Z,3.47
2023-02-07T17:58:55.740Z,3.38
2023-02-07T18:01:22.595Z,3.38
2023-02-07T18:03:51.068Z,4.40
2023-02-07T18:06:20.046Z,3.60
2023-02-07T18:08:47.230Z,3.70
2023-02-07T18:11:14.359Z,3.60
2023-02-07T18:13:46.380Z,3.10
2023-02-07T18:16:22.289Z,3.25
2023-02-07T18:18:53.359Z,3.63
2023-02-07T18:21:20.139Z,3.90
2023-02-07T18:23:46.837Z,2.83
2023-02-07T18:26:15.349Z,4.20
2023-02-07T18:28:43.402Z,3.00
2023-02-07T18:31:12.247Z,3.85
2023-02-07T18:33:39.104Z,3.83
2023-02-07T18:36:06.484Z,5.20
2023-02-07T18:38:33.025Z,4.00
2023-02-07T18:40:59.540Z,4.57
2023-02-07T18:43:26.069Z,3.28
2023-02-07T18:45:52.587Z,3.20
2023-02-07T18:48:19.144Z,4.35
2023-02-07T18:50:45.871Z,3.67
2023-02-07T18:53:13.237Z,3.28
2023-02-07T18:55:39.807Z,2.50
2023-02-07T18:58:06.362Z,3.22
2023-02-07T19:00:32.852Z,3.15
2023-02-07T19:02:59.395Z,2.80
2023-02-07T19:05:25.910Z,3.15
2023-02-07T19:07:54.198Z,3.30
2023-02-07T19:10:20.673Z,2.85
2023-02-07T19:12:47.118Z,3.20
2023-02-07T19:15:13.701Z,2.47
2023-02-07T19:17:40.212Z,3.60
2023-02-07T19:20:07.199Z,3.05
2023-02-07T19:22:36.016Z,2.92
2023-02-07T19:25:04.843Z,4.10
2023-02-07T19:27:31.437Z,2.40
2023-02-07T19:29:57.969Z,2.15
2023-02-07T19:32:25.160Z,4.10
2023-02-07T19:34:51.776Z,2.88
2023-02-07T19:37:18.597Z,4.28
2023-02-07T19:39:46.234Z,3.10
2023-02-07T19:42:12.919Z,3.88
2023-02-07T19:44:39.432Z,2.78
2023-02-07T19:47:05.945Z,2.95
2023-02-07T19:49:32.479Z,4.20
2023-02-07T19:52:00.212Z,2.65
2023-02-07T19:54:26.880Z,3.03
2023-02-07T19:56:53.376Z,3.40
2023-02-07T19:59:20.012Z,2.78
2023-02-07T20:01:46.648Z,3.15
2023-02-07T20:04:13.354Z,3.60
2023-02-07T20:06:40.046Z,3.45
2023-02-07T20:09:07.661Z,3.45
2023-02-07T20:11:34.890Z,3.17
2023-02-07T20:14:05.954Z,4.78
2023-02-07T20:16:35.575Z,5.00
2023-02-07T20:19:05.546Z,3.20
2023-02-07T20:21:33.712Z,3.55
2023-02-07T20:24:00.579Z,4.28
2023-02-07T20:26:33.168Z,3.20
2023-02-07T20:29:01.651Z,3.47
2023-02-07T20:31:32.000Z,5.63
2023-02-07T20:33:59.995Z,7.43
2023-02-07T20:36:27.036Z,4.40
2023-02-07T20:38:56.554Z,3.85
2023-02-07T20:41:30.800Z,4.45
2023-02-07T20:44:05.124Z,3.97
2023-02-07T20:46:36.185Z,3.13
2023-02-07T20:49:08.441Z,3.55
2023-02-07T20:51:35.422Z,2.92
2023-02-07T20:54:04.202Z,3.28
2023-02-07T20:56:32.799Z,3.30
2023-02-07T20:59:00.476Z,3.05
2023-02-07T21:01:29.954Z,3.50
2023-02-07T21:03:59.216Z,3.25
2023-02-07T21:06:26.310Z,3.22
2023-02-07T21:09:00.490Z,2.92
2023-02-07T21:11:39.823Z,3.53
2023-02-07T21:14:11.132Z,3.47
2023-02-07T21:16:37.839Z,3.50
2023-02-07T21:19:04.558Z,3.83
2023-02-07T21:21:31.621Z,3.08
2023-02-07T21:23:58.633Z,3.33
2023-02-07T21:26:28.809Z,3.42
2023-02-07T21:29:04.920Z,3.80
2023-02-07T21:31:34.919Z,4.40
2023-02-07T21:34:03.534Z,3.60
2023-02-07T21:36:33.310Z,3.28
2023-02-07T21:39:06.965Z,4.03
2023-02-07T21:41:33.660Z,3.40
2023-02-07T21:44:02.401Z,2.88
2023-02-07T21:46:34.525Z,3.17
2023-02-07T21:49:06.798Z,3.67
2023-02-07T21:51:35.247Z,4.55
2023-02-07T21:54:04.306Z,4.18
2023-02-07T21:56:34.603Z,3.22
2023-02-07T21:59:04.047Z,3.10
2023-02-07T22:01:33.165Z,2.83
2023-02-07T22:04:02.036Z,2.90
2023-02-07T22:06:29.425Z,3.67
2023-02-07T22:08:58.793Z,3.45
2023-02-07T22:11:28.647Z,3.15
2023-02-07T22:13:55.715Z,3.17
2023-02-07T22:16:24.867Z,2.95
2023-02-07T22:18:53.485Z,2.78
2023-02-07T22:21:22.732Z,2.13
2023-02-07T22:23:52.040Z,3.20
2023-02-07T22:26:18.774Z,3.53
2023-02-07T22:28:46.429Z,3.60
2023-02-07T22:31:19.478Z,3.25
2023-02-07T22:33:46.732Z,3.72
2023-02-07T22:36:20.053Z,3.80
2023-02-07T22:38:47.656Z,2.80
2023-02-07T22:41:15.167Z,3.15
2023-02-07T22:43:41.857Z,2.78
2023-02-07T22:46:12.161Z,3.47
2023-02-07T22:48:38.824Z,2.95
2023-02-07T22:51:23.858Z,2.88
2023-02-07T22:53:54.570Z,3.53
2023-02-07T22:56:21.644Z,2.75
2023-02-07T22:58:48.197Z,4.65
2023-02-07T23:01:36.176Z,2.53
2023-02-07T23:04:04.928Z,2.72
2023-02-07T23:06:34.820Z,2.65
2023-02-07T23:09:01.845Z,3.25
2023-02-07T23:11:28.437Z,3.70
2023-02-07T23:13:55.248Z,3.33
2023-02-07T23:16:27.885Z,3.30
2023-02-07T23:18:56.428Z,3.58
2023-02-07T23:21:24.338Z,3.00
2023-02-07T23:23:51.455Z,2.50
2023-02-07T23:26:20.827Z,3.88
2023-02-07T23:28:47.657Z,2.78
2023-02-07T23:31:16.357Z,2.47
2023-02-07T23:33:43.408Z,3.38
2023-02-07T23:36:10.441Z,3.75
2023-02-07T23:38:37.814Z,3.10
2023-02-07T23:41:04.892Z,3.75
2023-02-07T23:43:31.435Z,2.97
2023-02-07T23:45:58.254Z,2.85
2023-02-07T23:48:25.056Z,3.08
2023-02-07T23:50:56.934Z,2.45
2023-02-07T23:53:24.579Z,2.67
2023-02-07T23:55:54.029Z,2.47
2023-02-07T23:58:21.384Z,2.72
